Time;durP1;ratioP1;P1;durP2;ratioP2;P2;SDS_P1;SDS_P2;PMS_P1;PMS_P2;Temp;Humidity;BMP_temperature;BMP_pressure;BME280_temperature;BME280_humidity;BME280_pressure;Samples;Min_cycle;Max_cycle;Signal;HPM_P1;HPM_P2
2022/12/25 00:01:07;;;;;;;9.23;5.75;;;12.50;86.70;;;;;;4939983;29;20038;-80
2022/12/25 00:03:33;;;;;;;9.32;5.07;;;12.50;86.90;;;;;;4943220;29;20151;-80
2022/12/25 00:06:00;;;;;;;8.10;4.63;;;12.40;86.90;;;;;;4939756;29;20032;-80
2022/12/25 00:08:28;;;;;;;13.50;6.55;;;12.50;87.00;;;;;;4939659;29;20033;-80
2022/12/25 00:11:03;;;;;;;9.23;5.38;;;12.50;87.10;;;;;;4943183;29;20031;-80
2022/12/25 00:13:30;;;;;;;10.43;5.90;;;12.50;87.10;;;;;;4940462;29;20433;-81
2022/12/25 00:15:56;;;;;;;8.77;5.57;;;12.50;87.10;;;;;;4943674;29;20468;-80
2022/12/25 00:18:23;;;;;;;9.27;5.38;;;12.40;87.00;;;;;;4941967;29;20147;-80
2022/12/25 00:20:57;;;;;;;8.57;5.82;;;12.50;87.30;;;;;;4943224;29;20027;-80
2022/12/25 00:23:23;;;;;;;10.20;5.97;;;12.50;87.10;;;;;;4943165;29;20043;-80
2022/12/25 00:25:49;;;;;;;11.10;5.82;;;12.50;87.40;;;;;;4943755;29;20024;-81
2022/12/25 00:28:15;;;;;;;10.10;5.93;;;12.40;87.40;;;;;;4939620;29;20063;-80
2022/12/25 00:30:41;;;;;;;10.32;5.72;;;12.50;87.70;;;;;;4940304;29;20043;-80
2022/12/25 00:33:07;;;;;;;10.27;5.25;;;12.50;87.30;;;;;;4944226;29;20094;-81
2022/12/25 00:35:33;;;;;;;5.05;3.25;;;12.50;87.20;;;;;;4941412;29;20059;-81
2022/12/25 00:37:59;;;;;;;14.98;5.72;;;12.50;87.50;;;;;;4944239;29;20571;-81
2022/12/25 00:40:25;;;;;;;9.70;5.47;;;12.50;87.40;;;;;;4950940;29;20050;-80
2022/12/25 00:42:54;;;;;;;12.07;5.78;;;12.50;87.40;;;;;;4942189;29;20122;-80
2022/12/25 00:45:20;;;;;;;10.50;5.97;;;12.50;87.60;;;;;;4943210;29;20095;-81
2022/12/25 00:47:45;;;;;;;14.15;6.95;;;12.50;87.40;;;;;;4942889;29;20507;-81
2022/12/25 00:50:11;;;;;;;14.10;6.50;;;12.60;87.40;;;;;;4939834;29;20031;-79
2022/12/25 00:52:37;;;;;;;11.80;7.03;;;12.50;87.10;;;;;;4938720;29;20032;-81
2022/12/25 00:55:04;;;;;;;12.52;6.60;;;12.50;87.50;;;;;;4942037;29;20407;-80
2022/12/25 00:57:32;;;;;;;12.02;6.63;;;12.60;87.50;;;;;;4941731;29;20147;-80
2022/12/25 00:59:58;;;;;;;12.00;5.88;;;12.50;87.70;;;;;;4942479;29;20517;-80
2022/12/25 01:02:23;;;;;;;9.93;5.28;;;12.50;87.40;;;;;;4944502;29;20399;-80
2022/12/25 01:04:51;;;;;;;8.65;6.18;;;12.50;87.70;;;;;;4942005;29;20035;-80
2022/12/25 01:07:18;;;;;;;12.00;6.38;;;12.50;87.40;;;;;;4942997;29;20042;-80
2022/12/25 01:12:33;;;;;;;10.77;6.40;;;12.50;87.50;;;;;;4947628;29;20146;-81
2022/12/25 01:15:00;;;;;;;12.70;7.00;;;12.40;87.70;;;;;;4941123;29;20034;-81
2022/12/25 01:17:25;;;;;;;12.07;6.05;;;12.40;87.90;;;;;;4941842;29;20032;-81
2022/12/25 01:19:51;;;;;;;13.77;7.10;;;12.50;87.80;;;;;;4940866;29;20067;-80
2022/12/25 01:22:20;;;;;;;11.25;6.78;;;12.40;87.50;;;;;;4941644;29;20055;-81
2022/12/25 01:24:46;;;;;;;12.05;5.97;;;12.40;87.70;;;;;;4937497;29;20049;-81
2022/12/25 01:27:12;;;;;;;8.60;5.13;;;12.50;87.90;;;;;;4942281;29;20068;-80
2022/12/25 01:29:38;;;;;;;9.15;5.40;;;12.50;87.60;;;;;;4941147;29;20110;-81
2022/12/25 01:32:04;;;;;;;11.38;5.88;;;12.50;87.30;;;;;;4939182;29;20055;-81
2022/12/25 01:34:30;;;;;;;10.00;5.75;;;12.50;87.60;;;;;;4942428;29;20035;-81
2022/12/25 01:36:56;;;;;;;11.68;6.18;;;12.60;87.00;;;;;;4940681;29;20023;-81
2022/12/25 01:39:32;;;;;;;10.02;6.35;;;12.40;87.20;;;;;;4942114;29;20031;-81
2022/12/25 01:41:59;;;;;;;9.40;5.63;;;12.40;87.50;;;;;;4940786;29;20027;-81
2022/12/25 01:44:37;;;;;;;10.90;5.70;;;12.40;87.30;;;;;;4941896;29;20067;-81
2022/12/25 01:47:04;;;;;;;12.20;7.47;;;12.40;87.60;;;;;;4940353;29;20156;-81
2022/12/25 01:49:37;;;;;;;13.50;6.97;;;12.40;87.70;;;;;;4941768;29;20031;-81
2022/12/25 01:52:09;;;;;;;12.55;6.32;;;12.50;87.50;;;;;;4940820;29;20027;-81
2022/12/25 01:54:57;;;;;;;12.55;7.15;;;12.50;87.50;;;;;;4957442;29;20114;-81
2022/12/25 01:57:27;;;;;;;11.13;6.53;;;12.50;87.40;;;;;;4944732;29;20050;-81
2022/12/25 01:59:53;;;;;;;;;;;12.50;87.30;;;;;;4957839;29;20038;-81
2022/12/25 02:02:22;;;;;;;13.00;6.90;;;12.60;87.30;;;;;;4957122;29;19906;-81
2022/12/25 02:04:57;;;;;;;10.75;6.80;;;12.60;87.30;;;;;;4940017;29;20020;-81
2022/12/25 02:07:25;;;;;;;12.23;6.97;;;12.70;87.10;;;;;;4954851;29;20118;-81
2022/12/25 02:09:51;;;;;;;9.85;6.22;;;12.60;86.90;;;;;;4956578;29;20026;-81
2022/12/25 02:12:24;;;;;;;11.05;6.78;;;12.60;86.80;;;;;;4957217;29;20031;-81
2022/12/25 02:14:54;;;;;;;13.50;6.90;;;12.60;87.30;;;;;;4943890;29;20033;-81
2022/12/25 02:17:22;;;;;;;10.97;7.40;;;12.50;87.10;;;;;;4957132;29;20030;-81
2022/12/25 02:20:01;;;;;;;13.55;7.07;;;12.60;87.30;;;;;;4944047;29;20287;-81
2022/12/25 02:22:32;;;;;;;10.00;6.82;;;12.50;87.40;;;;;;4937971;29;20027;-81
2022/12/25 02:25:30;;;;;;;13.52;7.10;;;12.60;87.40;;;;;;4954166;29;20114;-81
2022/12/25 02:28:12;;;;;;;11.85;6.88;;;12.60;87.20;;;;;;4905667;29;20118;-81
2022/12/25 02:31:06;;;;;;;12.23;7.43;;;12.70;87.20;;;;;;4953850;29;20055;-81
2022/12/25 02:34:02;;;;;;;10.90;6.97;;;12.70;87.00;;;;;;4956035;29;20047;-81
2022/12/25 02:37:03;;;;;;;13.10;7.97;;;12.70;87.10;;;;;;4946457;29;20086;-82
2022/12/25 02:40:01;;;;;;;15.05;7.55;;;12.70;87.10;;;;;;4946479;29;20502;-81
2022/12/25 03:07:54;;;;;;;18.13;9.32;;;12.60;87.50;;;;;;4945976;29;20078;-81
2022/12/25 03:13:08;;;;;;;20.70;10.35;;;12.70;87.30;;;;;;4954879;29;20058;-81
2022/12/25 03:18:23;;;;;;;17.83;10.57;;;12.60;87.30;;;;;;4960483;29;20054;-81
2022/12/25 03:29:07;;;;;;;16.88;8.90;;;12.50;87.80;;;;;;4960099;29;20078;-81
2022/12/25 03:31:52;;;;;;;15.10;8.23;;;12.50;87.60;;;;;;4959912;29;20044;-81
2022/12/25 04:36:43;;;;;;;8.20;5.35;;;12.30;88.40;;;;;;4949305;29;20550;-82
2022/12/25 04:39:09;;;;;;;11.70;5.60;;;12.30;88.50;;;;;;4957032;29;20035;-82
2022/12/25 04:41:37;;;;;;;7.50;5.07;;;12.30;88.40;;;;;;4952480;29;20019;-81
2022/12/25 04:44:03;;;;;;;8.95;4.78;;;12.30;88.20;;;;;;4959277;29;20035;-82
2022/12/25 04:46:29;;;;;;;7.75;4.93;;;12.30;88.20;;;;;;4959104;29;20029;-81
2022/12/25 04:48:54;;;;;;;9.52;4.68;;;12.30;88.20;;;;;;4939810;29;20039;-81
2022/12/25 04:51:23;;;;;;;6.75;4.28;;;12.30;88.20;;;;;;4958584;29;20027;-81
2022/12/25 04:53:49;;;;;;;7.15;4.65;;;12.20;88.10;;;;;;4958362;29;20032;-81
2022/12/25 04:56:16;;;;;;;6.07;4.55;;;12.30;88.10;;;;;;4952388;29;20059;-81
2022/12/25 04:58:45;;;;;;;8.35;4.70;;;12.20;88.50;;;;;;4934782;29;20031;-81
2022/12/25 05:01:11;;;;;;;7.95;4.45;;;12.30;88.40;;;;;;4941206;29;20325;-81
2022/12/25 05:03:37;;;;;;;9.10;4.60;;;12.30;88.20;;;;;;4958257;29;20395;-81
2022/12/25 05:06:04;;;;;;;6.38;4.47;;;12.30;88.20;;;;;;4950878;29;20027;-81
2022/12/25 05:08:31;;;;;;;8.10;5.30;;;12.30;88.10;;;;;;4958335;29;20178;-81
2022/12/25 05:10:58;;;;;;;9.70;4.97;;;12.30;88.10;;;;;;4941068;29;20044;-81
2022/12/25 05:13:24;;;;;;;7.85;4.60;;;12.30;88.10;;;;;;4947521;29;20027;-81
2022/12/25 05:15:49;;;;;;;8.75;5.38;;;12.20;88.10;;;;;;4953039;29;20023;-80
2022/12/25 05:18:15;;;;;;;8.85;5.18;;;12.30;88.00;;;;;;4940467;29;20031;-81
2022/12/25 05:20:41;;;;;;;8.45;5.10;;;12.30;88.20;;;;;;4940113;29;20034;-81
2022/12/25 05:23:10;;;;;;;8.02;5.10;;;12.20;88.20;;;;;;4955630;29;20031;-81
2022/12/25 05:25:39;;;;;;;8.15;5.13;;;12.20;88.50;;;;;;4952454;29;20604;-81
2022/12/25 05:28:04;;;;;;;10.65;5.85;;;12.20;88.10;;;;;;4939890;29;20023;-82
2022/12/25 05:30:30;;;;;;;8.68;5.07;;;12.20;88.60;;;;;;4937168;29;20111;-82
2022/12/25 05:32:58;;;;;;;9.02;5.38;;;12.30;88.40;;;;;;4955301;29;20024;-81
2022/12/25 05:35:23;;;;;;;10.45;5.05;;;12.30;88.20;;;;;;4954569;29;20035;-82
2022/12/25 05:37:49;;;;;;;7.32;4.75;;;12.30;88.10;;;;;;4957592;29;20646;-82
2022/12/25 05:40:15;;;;;;;8.85;4.68;;;12.30;88.10;;;;;;4957378;29;21827;-81
2022/12/25 05:42:40;;;;;;;9.02;4.97;;;12.30;88.00;;;;;;4956201;29;20023;-82
2022/12/25 05:45:06;;;;;;;8.02;5.53;;;12.30;87.50;;;;;;4955089;29;20035;-81
2022/12/25 05:47:32;;;;;;;12.00;5.50;;;12.30;87.90;;;;;;4957677;29;20487;-81
2022/12/25 05:49:58;;;;;;;10.52;5.30;;;12.30;87.90;;;;;;4952616;29;20538;-84
2022/12/25 05:52:23;;;;;;;7.15;5.00;;;12.30;87.70;;;;;;4956569;29;20023;-78
2022/12/25 05:54:49;;;;;;;10.85;5.63;;;12.30;87.90;;;;;;4956669;29;20026;-79
2022/12/25 05:57:15;;;;;;;9.18;5.60;;;12.20;88.00;;;;;;4947931;29;20059;-80
2022/12/25 05:59:40;;;;;;;8.50;5.35;;;12.20;88.10;;;;;;4957155;29;20031;-80
2022/12/25 06:02:06;;;;;;;10.55;6.18;;;12.20;88.30;;;;;;4954081;29;20094;-79
2022/12/25 06:04:31;;;;;;;9.10;5.60;;;12.20;88.20;;;;;;4952623;29;20034;-78
2022/12/25 06:06:59;;;;;;;8.85;5.72;;;12.30;88.20;;;;;;4955592;29;20070;-79
2022/12/25 06:09:25;;;;;;;7.82;4.70;;;12.30;88.00;;;;;;4957004;28;20081;-83
2022/12/25 06:11:51;;;;;;;7.47;4.80;;;12.20;87.90;;;;;;4946820;29;20019;-79
2022/12/25 06:14:16;;;;;;;8.35;5.50;;;12.30;88.10;;;;;;4954019;29;20031;-80
2022/12/25 06:16:42;;;;;;;8.50;4.75;;;12.20;88.00;;;;;;4954295;29;20056;-77
2022/12/25 06:19:08;;;;;;;10.43;5.32;;;12.20;88.00;;;;;;4951481;29;20035;-78
2022/12/25 06:21:34;;;;;;;11.27;5.15;;;12.20;88.10;;;;;;4957083;29;20019;-77
2022/12/25 06:24:07;;;;;;;8.52;5.40;;;12.30;88.30;;;;;;4957231;29;20027;-81
2022/12/25 06:26:33;;;;;;;8.60;4.95;;;12.30;88.10;;;;;;4952827;29;20079;-76
2022/12/25 06:28:58;;;;;;;9.40;5.55;;;12.30;88.00;;;;;;4950255;29;20023;-76
2022/12/25 06:31:24;;;;;;;7.03;4.75;;;12.30;87.90;;;;;;4956390;29;20043;-76
2022/12/25 06:33:50;;;;;;;8.55;4.40;;;12.30;87.50;;;;;;4956925;29;20030;-77
2022/12/25 06:36:20;;;;;;;7.50;4.60;;;12.30;87.70;;;;;;4953037;29;20412;-77
2022/12/25 06:38:46;;;;;;;;;;;12.40;87.80;;;;;;4957567;29;20024;-76
2022/12/25 06:41:24;;;;;;;8.20;5.30;;;12.40;87.70;;;;;;4948841;28;19917;-77
2022/12/25 06:43:53;;;;;;;6.93;4.40;;;12.50;87.40;;;;;;4939799;29;20027;-75
2022/12/25 06:46:20;;;;;;;7.20;4.80;;;12.40;87.40;;;;;;4956871;29;20082;-78
2022/12/25 06:48:48;;;;;;;7.40;5.10;;;12.30;87.40;;;;;;4951694;29;20028;-78
2022/12/25 06:51:20;;;;;;;8.27;4.43;;;12.30;87.80;;;;;;4955276;29;20082;-77
2022/12/25 06:53:47;;;;;;;7.13;4.63;;;12.30;88.10;;;;;;4956583;29;20503;-77
2022/12/25 06:56:15;;;;;;;9.52;4.28;;;12.40;87.80;;;;;;4954598;29;20063;-81
2022/12/25 06:58:43;;;;;;;6.95;4.57;;;12.50;87.60;;;;;;4950230;29;20028;-78
2022/12/25 07:01:30;;;;;;;13.05;6.40;;;12.60;87.40;;;;;;4957103;29;20058;-78
2022/12/25 07:04:02;;;;;;;21.63;10.50;;;12.60;87.30;;;;;;4944423;29;20035;-79
2022/12/25 07:06:28;;;;;;;21.90;13.18;;;12.60;87.10;;;;;;4956154;29;20031;-78
2022/12/25 07:08:54;;;;;;;12.13;7.57;;;12.60;87.00;;;;;;4956515;29;20027;-78
2022/12/25 07:11:20;;;;;;;8.77;5.25;;;12.70;86.90;;;;;;4953500;29;20019;-78
2022/12/25 07:13:46;;;;;;;6.75;4.70;;;12.70;86.80;;;;;;4949785;29;20407;-78
2022/12/25 07:16:12;;;;;;;6.63;4.72;;;12.70;86.70;;;;;;4957627;29;20102;-78
2022/12/25 07:18:39;;;;;;;6.45;4.55;;;12.70;86.70;;;;;;4955803;29;20031;-78
2022/12/25 07:21:18;;;;;;;6.00;4.53;;;12.70;86.60;;;;;;4955257;29;20118;-76
2022/12/25 07:23:46;;;;;;;8.05;4.82;;;12.70;86.60;;;;;;4953837;28;20499;-78
2022/12/25 07:26:13;;;;;;;8.55;5.03;;;12.70;86.60;;;;;;4953427;29;20115;-80
2022/12/25 07:28:39;;;;;;;9.43;5.60;;;12.70;86.60;;;;;;4957347;29;20030;-78
2022/12/25 07:31:10;;;;;;;10.23;6.97;;;12.70;86.40;;;;;;4953276;29;20055;-78
2022/12/25 07:33:36;;;;;;;9.70;6.68;;;12.70;86.60;;;;;;4954118;29;20104;-78
2022/12/25 07:36:04;;;;;;;10.52;7.47;;;12.70;86.60;;;;;;4956707;29;20023;-78
2022/12/25 07:38:30;;;;;;;15.95;9.48;;;12.70;86.70;;;;;;4954933;29;20067;-78
2022/12/25 07:40:56;;;;;;;13.70;7.85;;;12.70;86.80;;;;;;4945382;29;20107;-78
2022/12/25 07:43:22;;;;;;;10.15;6.80;;;12.70;86.50;;;;;;4946734;29;20391;-78
2022/12/25 07:45:56;;;;;;;8.82;5.30;;;12.70;86.80;;;;;;4960657;29;20043;-78
2022/12/25 07:48:22;;;;;;;7.30;4.38;;;12.70;86.70;;;;;;4960107;29;20031;-78
2022/12/25 07:50:47;;;;;;;6.90;4.57;;;12.70;86.70;;;;;;4948613;29;20038;-78
2022/12/25 07:53:13;;;;;;;7.30;4.82;;;12.70;86.70;;;;;;4960117;29;20027;-77
2022/12/25 07:55:39;;;;;;;6.65;4.60;;;12.80;86.60;;;;;;4958901;29;20038;-78
2022/12/25 07:58:04;;;;;;;9.55;4.97;;;12.70;86.70;;;;;;4958060;29;20052;-77
2022/12/25 08:00:31;;;;;;;7.28;4.32;;;12.70;86.50;;;;;;4959426;29;20063;-79
2022/12/25 08:02:58;;;;;;;8.05;4.53;;;12.70;86.70;;;;;;4958226;29;20023;-78
2022/12/25 08:05:23;;;;;;;6.88;4.50;;;12.70;86.80;;;;;;4959885;29;20027;-78
2022/12/25 08:07:54;;;;;;;5.50;4.32;;;12.70;86.60;;;;;;4954356;29;20404;-80
2022/12/25 08:10:20;;;;;;;10.00;5.32;;;12.70;86.70;;;;;;4951973;29;20035;-78
2022/12/25 08:12:45;;;;;;;8.00;4.90;;;12.70;86.80;;;;;;4954758;28;20500;-77
2022/12/25 08:15:12;;;;;;;8.98;5.47;;;12.70;86.70;;;;;;4959733;29;20028;-78
2022/12/25 08:17:38;;;;;;;11.15;6.25;;;12.60;86.80;;;;;;4959527;29;20058;-78
2022/12/25 08:20:04;;;;;;;10.70;7.15;;;12.70;86.80;;;;;;4959980;29;20035;-78
2022/12/25 08:22:30;;;;;;;10.75;6.35;;;12.70;86.60;;;;;;4953115;29;20035;-79
2022/12/25 08:24:56;;;;;;;9.15;5.50;;;12.80;86.70;;;;;;4959974;29;20062;-78
2022/12/25 08:27:21;;;;;;;8.27;5.32;;;12.70;86.60;;;;;;4957762;29;20027;-77
2022/12/25 08:29:47;;;;;;;8.13;4.97;;;12.70;86.60;;;;;;4956503;29;20058;-77
2022/12/25 08:32:12;;;;;;;8.80;4.90;;;12.80;86.50;;;;;;4955936;29;20110;-77
2022/12/25 08:34:38;;;;;;;6.32;3.83;;;12.80;86.60;;;;;;4957836;29;20102;-79
2022/12/25 08:37:04;;;;;;;6.30;4.40;;;12.80;86.50;;;;;;4956459;29;20078;-78
2022/12/25 08:39:29;;;;;;;5.30;3.58;;;12.80;86.50;;;;;;4950051;29;20078;-78
2022/12/25 08:41:55;;;;;;;7.07;3.58;;;12.80;86.40;;;;;;4959234;29;20031;-78
2022/12/25 08:44:21;;;;;;;6.90;3.67;;;12.80;86.30;;;;;;4955202;29;20484;-78
2022/12/25 08:46:46;;;;;;;4.78;2.97;;;12.80;86.30;;;;;;4953805;29;20031;-79
2022/12/25 08:49:12;;;;;;;5.45;3.53;;;12.80;86.20;;;;;;4959119;29;20031;-77
2022/12/25 08:51:37;;;;;;;5.85;3.42;;;12.80;86.20;;;;;;4957668;29;20034;-79
2022/12/25 08:54:03;;;;;;;5.00;3.33;;;12.80;86.20;;;;;;4955205;29;20027;-78
2022/12/25 08:56:29;;;;;;;4.95;3.25;;;12.80;86.20;;;;;;4956618;28;20399;-80
2022/12/25 08:58:55;;;;;;;4.63;3.05;;;12.80;86.20;;;;;;4959134;29;20027;-79
2022/12/25 09:01:21;;;;;;;5.90;3.17;;;12.80;86.30;;;;;;4958740;29;20027;-77
2022/12/25 09:03:46;;;;;;;5.35;2.92;;;12.80;86.30;;;;;;4958760;29;20033;-78
2022/12/25 09:06:15;;;;;;;5.82;3.05;;;12.80;86.20;;;;;;4951375;29;20507;-78
2022/12/25 09:08:41;;;;;;;5.40;3.28;;;12.80;86.20;;;;;;4957673;29;20114;-78
2022/12/25 09:11:13;;;;;;;5.80;2.97;;;12.80;86.20;;;;;;4958132;29;20011;-78
2022/12/25 09:13:39;;;;;;;5.55;3.25;;;12.80;86.10;;;;;;4955859;29;20023;-77
2022/12/25 09:16:07;;;;;;;6.38;4.53;;;12.80;86.30;;;;;;4954972;29;20015;-78
2022/12/25 09:18:33;;;;;;;7.88;3.88;;;12.80;86.30;;;;;;4957378;29;20028;-79
2022/12/25 09:21:00;;;;;;;11.65;7.28;;;12.80;86.30;;;;;;4957206;29;20051;-77
2022/12/25 09:23:27;;;;;;;9.07;5.55;;;12.80;86.30;;;;;;4958357;28;20039;-77
2022/12/25 09:25:52;;;;;;;7.85;5.38;;;12.80;86.40;;;;;;4947486;29;20412;-78
2022/12/25 09:28:18;;;;;;;10.15;5.82;;;12.80;86.40;;;;;;4958285;29;20027;-78
2022/12/25 09:30:44;;;;;;;10.43;6.53;;;12.90;86.30;;;;;;4958085;29;20054;-77
2022/12/25 09:33:09;;;;;;;9.73;6.38;;;12.90;86.40;;;;;;4955107;29;20398;-78
2022/12/25 09:35:35;;;;;;;9.07;6.32;;;12.90;86.00;;;;;;4958165;29;20031;-77
2022/12/25 09:38:01;;;;;;;8.35;5.10;;;12.90;86.50;;;;;;4954882;29;20106;-77
2022/12/25 09:40:29;;;;;;;5.35;4.45;;;12.80;86.40;;;;;;4957803;29;20031;-78
2022/12/25 09:42:55;;;;;;;7.18;4.63;;;12.80;86.20;;;;;;4958361;29;20035;-77
2022/12/25 09:45:42;;;;;;;8.88;5.10;;;12.80;86.50;;;;;;4950094;29;20110;-79
2022/12/25 09:48:14;;;;;;;7.03;4.65;;;12.90;86.40;;;;;;4956466;29;20031;-80
2022/12/25 09:50:52;;;;;;;7.45;4.20;;;12.90;86.10;;;;;;4957924;29;20075;-80
2022/12/25 09:53:31;;;;;;;7.15;4.65;;;12.80;86.10;;;;;;4952675;29;20087;-80
2022/12/25 09:56:17;;;;;;;7.67;3.40;;;12.80;86.60;;;;;;4957565;29;20750;-80
2022/12/25 09:58:42;;;;;;;5.68;4.00;;;12.80;86.20;;;;;;4947110;29;20065;-80
2022/12/25 10:01:11;;;;;;;7.47;4.97;;;12.80;86.30;;;;;;4957766;29;20023;-80
2022/12/25 10:04:05;;;;;;;6.70;4.50;;;12.80;86.50;;;;;;4956455;29;20031;-80
2022/12/25 10:06:39;;;;;;;8.00;5.40;;;12.80;86.60;;;;;;4949378;28;20130;-79
2022/12/25 10:09:59;;;;;;;9.48;6.10;;;12.80;86.70;;;;;;4956391;29;20063;-79
2022/12/25 10:12:31;;;;;;;10.60;7.38;;;12.80;86.50;;;;;;4901175;29;20065;-79
2022/12/25 10:15:22;;;;;;;9.60;5.90;;;12.80;86.70;;;;;;4946464;29;20035;-79
2022/12/25 10:18:23;;;;;;;7.40;5.05;;;12.80;86.50;;;;;;4957399;29;20078;-79
2022/12/25 10:20:51;;;;;;;7.95;5.38;;;12.70;86.80;;;;;;4945964;29;20023;-79
2022/12/25 10:23:34;;;;;;;8.85;4.93;;;12.70;86.90;;;;;;4957404;29;20381;-79
2022/12/25 10:26:00;;;;;;;13.07;6.68;;;12.70;87.00;;;;;;4955460;29;20070;-79
2022/12/25 10:28:33;;;;;;;13.70;7.18;;;12.70;87.00;;;;;;4954679;29;20035;-79
2022/12/25 10:31:04;;;;;;;12.38;7.28;;;12.70;87.00;;;;;;4951644;29;20054;-79
2022/12/25 10:33:30;;;;;;;8.88;5.97;;;12.80;86.70;;;;;;4957600;28;20487;-79
2022/12/25 10:35:55;;;;;;;12.40;6.68;;;12.80;86.60;;;;;;4956075;29;20126;-79
2022/12/25 10:38:21;;;;;;;16.08;8.30;;;12.70;86.80;;;;;;4946486;29;20042;-79
2022/12/25 10:41:02;;;;;;;13.00;6.53;;;12.70;87.20;;;;;;4955712;29;20388;-79
2022/12/25 10:43:47;;;;;;;16.02;8.68;;;12.60;87.20;;;;;;4957032;29;20062;-79
2022/12/25 10:46:15;;;;;;;8.73;4.95;;;12.70;87.50;;;;;;4952791;29;20035;-79
2022/12/25 10:48:45;;;;;;;6.70;4.95;;;12.70;87.40;;;;;;4956018;29;20034;-79
2022/12/25 10:51:11;;;;;;;6.50;3.85;;;12.80;87.10;;;;;;4957674;29;20020;-79
2022/12/25 10:53:40;;;;;;;5.88;4.32;;;12.80;87.20;;;;;;4954554;29;20089;-79
2022/12/25 10:56:06;;;;;;;6.70;4.45;;;12.80;87.00;;;;;;4955730;29;20093;-79
2022/12/25 10:58:33;;;;;;;7.30;4.88;;;12.80;87.10;;;;;;4955729;29;20031;-79
2022/12/25 11:01:06;;;;;;;6.68;3.90;;;12.80;87.10;;;;;;4957064;29;20058;-79
2022/12/25 11:03:35;;;;;;;7.88;4.95;;;12.80;87.40;;;;;;4950127;29;20027;-79
2022/12/25 11:06:02;;;;;;;6.43;4.60;;;12.90;87.20;;;;;;4956794;29;20086;-79
2022/12/25 11:08:30;;;;;;;5.65;3.85;;;12.80;86.80;;;;;;4955893;29;20490;-79
2022/12/25 11:11:04;;;;;;;6.45;4.25;;;12.80;87.40;;;;;;4956408;29;20024;-79
2022/12/25 11:13:33;;;;;;;7.80;4.40;;;12.80;87.30;;;;;;4957066;29;20083;-79
2022/12/25 11:16:13;;;;;;;10.32;4.72;;;12.80;87.50;;;;;;4956772;29;20102;-79
2022/12/25 11:18:48;;;;;;;9.30;5.03;;;12.90;87.20;;;;;;4953120;28;20028;-79
2022/12/25 11:21:27;;;;;;;8.27;5.78;;;13.00;87.20;;;;;;4960471;29;20483;-79
2022/12/25 11:23:57;;;;;;;10.18;5.45;;;13.00;86.90;;;;;;4959493;29;20023;-79
2022/12/25 11:26:23;;;;;;;;;;;13.00;86.70;;;;;;4959609;29;20019;-79
2022/12/25 11:28:51;;;;;;;7.13;5.10;;;13.00;87.20;;;;;;4958301;29;19985;-79
2022/12/25 11:31:39;;;;;;;8.77;5.35;;;13.10;86.80;;;;;;4950016;29;20139;-79
2022/12/25 11:34:24;;;;;;;7.63;5.28;;;13.10;87.00;;;;;;4957133;29;20027;-79
2022/12/25 11:36:51;;;;;;;6.95;4.68;;;13.00;87.20;;;;;;4960327;29;20023;-79
2022/12/25 11:39:38;;;;;;;6.07;4.28;;;13.10;87.20;;;;;;4953716;29;20028;-79
2022/12/25 11:42:23;;;;;;;5.95;3.92;;;13.10;86.70;;;;;;4960057;29;20045;-79
2022/12/25 11:44:48;;;;;;;8.63;4.40;;;13.10;87.20;;;;;;4960338;29;20031;-79
2022/12/25 11:47:23;;;;;;;5.55;4.07;;;13.10;87.10;;;;;;4949331;29;20027;-79
2022/12/25 11:49:56;;;;;;;6.72;4.68;;;13.10;87.40;;;;;;4960262;28;20031;-79
2022/12/25 11:52:26;;;;;;;6.82;4.80;;;13.20;87.30;;;;;;4956320;29;20070;-79
2022/12/25 11:55:41;;;;;;;9.02;4.18;;;13.30;87.20;;;;;;4959965;29;20026;-79
2022/12/25 11:58:27;;;;;;;8.10;4.55;;;13.30;87.20;;;;;;4938336;29;20275;-79
2022/12/25 12:00:56;;;;;;;6.65;4.00;;;13.30;87.20;;;;;;4920624;29;20028;-79
2022/12/25 12:03:34;;;;;;;8.95;4.55;;;13.30;87.20;;;;;;4945387;29;20040;-79
2022/12/25 12:06:19;;;;;;;5.45;3.75;;;13.20;87.20;;;;;;4957222;29;20054;-79
2022/12/25 12:08:49;;;;;;;6.28;3.88;;;13.20;87.50;;;;;;4953493;29;20035;-79
2022/12/25 12:11:22;;;;;;;6.18;4.50;;;13.30;87.60;;;;;;4955823;29;20122;-79
2022/12/25 12:14:00;;;;;;;6.00;4.20;;;13.30;87.60;;;;;;4952988;29;20028;-79
2022/12/25 12:16:25;;;;;;;9.60;4.15;;;13.30;87.60;;;;;;4952674;29;20031;-79
2022/12/25 12:18:51;;;;;;;8.30;4.63;;;13.40;87.60;;;;;;4952766;29;20031;-79
2022/12/25 12:21:16;;;;;;;7.72;4.70;;;13.50;87.70;;;;;;4958291;29;20387;-79
2022/12/25 12:24:01;;;;;;;10.32;4.57;;;13.60;87.40;;;;;;4957346;29;20086;-79
2022/12/25 12:26:29;;;;;;;7.57;4.47;;;13.60;87.40;;;;;;4957041;29;20166;-79
2022/12/25 12:28:59;;;;;;;9.27;4.45;;;13.70;87.40;;;;;;4958081;29;20091;-79
2022/12/25 12:31:36;;;;;;;9.98;3.72;;;13.70;87.20;;;;;;4956836;28;20050;-79
2022/12/25 12:34:01;;;;;;;7.50;4.25;;;13.80;87.20;;;;;;4950693;29;20036;-79
2022/12/25 12:36:27;;;;;;;5.68;3.20;;;13.70;87.30;;;;;;4956685;29;20038;-80
2022/12/25 12:38:58;;;;;;;7.43;4.57;;;13.70;87.40;;;;;;4959357;29;20098;-79
2022/12/25 12:41:37;;;;;;;8.32;4.18;;;13.60;87.50;;;;;;4954230;29;20044;-79
2022/12/25 12:44:04;;;;;;;5.33;3.87;;;13.60;87.80;;;;;;4957921;29;20024;-79
2022/12/25 12:46:35;;;;;;;6.38;3.85;;;13.60;87.70;;;;;;4959087;29;20028;-79
2022/12/25 12:49:26;;;;;;;7.35;4.18;;;13.60;87.80;;;;;;4955968;29;20035;-79
2022/12/25 12:52:20;;;;;;;6.38;3.78;;;13.60;87.70;;;;;;4953563;29;20028;-79
2022/12/25 12:55:15;;;;;;;6.63;4.32;;;13.70;87.70;;;;;;4958668;29;20062;-79
2022/12/25 12:57:41;;;;;;;7.80;4.45;;;13.70;87.50;;;;;;4941298;28;20038;-79
2022/12/25 13:00:17;;;;;;;8.20;4.25;;;13.70;87.70;;;;;;4958870;29;20054;-79
2022/12/25 13:03:28;;;;;;;8.05;4.15;;;13.70;87.80;;;;;;4958714;29;20078;-79
2022/12/25 13:06:10;;;;;;;10.18;4.82;;;13.60;87.70;;;;;;4916274;29;20089;-79
2022/12/25 13:08:57;;;;;;;8.85;4.60;;;13.70;87.80;;;;;;4910712;29;20558;-80
2022/12/25 13:11:28;;;;;;;11.25;4.93;;;13.70;87.60;;;;;;4949272;28;20034;-80
2022/12/25 13:13:56;;;;;;;8.57;4.82;;;13.80;87.60;;;;;;4957374;29;20031;-78
2022/12/25 13:16:41;;;;;;;10.18;5.25;;;13.80;87.60;;;;;;4957410;29;20021;-78
2022/12/25 13:19:16;;;;;;;8.07;4.78;;;13.70;87.60;;;;;;4957098;29;20055;-78
2022/12/25 13:21:51;;;;;;;14.43;6.32;;;13.70;87.60;;;;;;4956521;29;20050;-78
2022/12/25 13:24:23;;;;;;;11.55;5.00;;;13.70;87.70;;;;;;4958225;29;20082;-78
2022/12/25 13:26:49;;;;;;;8.90;5.60;;;13.70;87.50;;;;;;4955885;29;20027;-78
2022/12/25 13:29:30;;;;;;;10.25;6.00;;;13.80;87.50;;;;;;4952505;29;20051;-78
2022/12/25 13:31:57;;;;;;;14.57;6.45;;;13.80;87.60;;;;;;4953079;29;20499;-78
2022/12/25 13:34:30;;;;;;;12.20;6.32;;;13.70;87.50;;;;;;4948981;29;20103;-78
2022/12/25 13:37:05;;;;;;;20.30;10.27;;;13.70;87.60;;;;;;4958118;29;20091;-78
2022/12/25 13:39:33;;;;;;;16.10;8.88;;;13.80;87.50;;;;;;4958088;29;20031;-78
2022/12/25 13:42:04;;;;;;;12.82;6.75;;;13.80;87.50;;;;;;4951366;29;20039;-78
2022/12/25 13:44:58;;;;;;;8.10;5.55;;;13.80;87.60;;;;;;4958118;29;20031;-78
2022/12/25 13:47:29;;;;;;;11.38;5.88;;;13.70;87.40;;;;;;4946450;28;20094;-78
2022/12/25 13:49:56;;;;;;;9.23;6.35;;;13.80;87.60;;;;;;4940295;29;20031;-78
2022/12/25 13:52:27;;;;;;;9.23;5.57;;;13.80;87.50;;;;;;4956291;29;20027;-78
2022/12/25 13:54:55;;;;;;;9.52;5.57;;;13.90;87.40;;;;;;4956531;29;20089;-78
2022/12/25 13:57:26;;;;;;;9.68;5.10;;;13.90;87.20;;;;;;4957531;29;20379;-78
2022/12/25 13:59:51;;;;;;;9.02;4.85;;;13.90;87.20;;;;;;4954075;29;20118;-78
2022/12/25 14:02:20;;;;;;;10.00;5.13;;;14.00;87.20;;;;;;4954172;29;20035;-78
2022/12/25 14:04:46;;;;;;;7.68;4.53;;;13.90;87.10;;;;;;4957816;29;20082;-78
2022/12/25 14:07:17;;;;;;;8.13;4.38;;;14.00;87.30;;;;;;4950660;29;20040;-78
2022/12/25 14:09:43;;;;;;;12.68;5.18;;;14.00;87.20;;;;;;4956511;29;20058;-78
2022/12/25 14:12:09;;;;;;;11.18;4.30;;;14.00;87.20;;;;;;4956625;29;20039;-78
2022/12/25 14:14:35;;;;;;;7.13;3.90;;;14.00;87.20;;;;;;4957332;29;20019;-78
2022/12/25 14:17:01;;;;;;;7.30;4.68;;;14.00;87.20;;;;;;4957701;29;20024;-78
2022/12/25 14:19:29;;;;;;;7.53;4.35;;;14.00;87.30;;;;;;4948331;29;20081;-78
2022/12/25 14:22:01;;;;;;;10.05;3.90;;;14.00;87.30;;;;;;4957620;29;20104;-78
2022/12/25 14:24:29;;;;;;;6.65;3.60;;;14.00;87.30;;;;;;4955755;29;20502;-78
2022/12/25 14:27:04;;;;;;;9.90;4.10;;;14.00;87.30;;;;;;4952262;29;20036;-78
2022/12/25 14:29:38;;;;;;;7.63;2.95;;;13.90;87.50;;;;;;4953296;29;20038;-78
2022/12/25 14:32:14;;;;;;;9.50;3.97;;;13.90;87.40;;;;;;4954263;29;20050;-78
2022/12/25 14:34:42;;;;;;;4.13;2.70;;;13.80;87.70;;;;;;4957194;29;20565;-78
2022/12/25 14:37:17;;;;;;;6.40;3.00;;;13.90;87.60;;;;;;4956185;29;20468;-78
2022/12/25 14:39:46;;;;;;;7.65;2.80;;;13.90;87.50;;;;;;4954689;29;20053;-78
2022/12/25 14:42:21;;;;;;;8.52;2.75;;;14.00;87.50;;;;;;4947413;29;20035;-78
2022/12/25 14:45:05;;;;;;;6.50;2.88;;;14.00;87.40;;;;;;4957234;29;20027;-78